Flight Track Log - Related Links

Times and Time Zones

All times are in EDT time to prevent confusion due to time zone crossing. See the EJA820 flight status page for this flight to view local times or setup timezone preferences in your user account.

Time Position Orientation Groundspeed Altitude Reporting Facility
EDT Latitude Longitude Course Direction KTS MPH feet Rate Location/Type
Tue 07:42:59 AM 30.4822 -81.6872 74° East 159 183 400  Level Jacksonville Center
Tue 07:43:48 AM 30.4922 -81.6461 74° East 209 241 2,100 1,929 Climbing Jacksonville Center
Tue 07:44:51 AM 30.5592 -81.6767 339° North 246 283 4,000 2,585 Climbing Jacksonville Center
Tue 07:45:51 AM 30.6181 -81.7122 333° Northwest 264 304 7,400 3,300 Climbing Jacksonville Center
Tue 07:46:51 AM 30.6853 -81.7475 336° Northwest 264 304 10,600 2,850 Climbing Jacksonville Center
Tue 07:47:51 AM 30.7567 -81.7853 336° Northwest 270 311 13,100 2,550 Climbing Jacksonville Center
Tue 07:48:51 AM 30.8383 -81.8183 341° North 283 326 15,700 2,350 Climbing Jacksonville Center
Tue 07:49:51 AM 30.9200 -81.8514 341° North 301 346 17,800 2,050 Climbing Jacksonville Center
Tue 07:50:51 AM 31.0078 -81.8842 342° North 312 359 19,800 2,000 Climbing Jacksonville Center
Tue 07:51:51 AM 31.0958 -81.9197 341° North 326 375 21,800 1,950 Climbing Jacksonville Center
Tue 07:52:51 AM 31.1881 -81.9553 342° North 331 381 23,700 1,950 Climbing Jacksonville Center
Tue 07:53:51 AM 31.2781 -81.9883 343° North 331 381 25,700 1,800 Climbing Jacksonville Center
Tue 07:54:51 AM 31.3722 -82.0239 342° North 336 387 27,300 1,550 Climbing Jacksonville Center
Tue 07:55:51 AM 31.4664 -82.0644 340° North 348 400 28,800 1,133 Climbing Jacksonville Center
Tue 07:58:07 AM 31.6883 -82.1497 342° North 372 428 31,000 673 Climbing Atlanta Center
Tue 07:59:07 AM 31.7911 -82.1917 341° North 379 436 31,000  Level Atlanta Center
Tue 08:00:07 AM 31.9003 -82.2333 342° North 393 452 31,000  Level Atlanta Center
Tue 08:01:07 AM 32.0094 -82.2753 342° North 403 464 31,000  Level Atlanta Center
Tue 08:02:07 AM 32.1144 -82.3175 341° North 408 470 31,000  Level Atlanta Center
Tue 08:03:07 AM 32.2214 -82.3619 341° North 403 464 31,000  Level Atlanta Center
Tue 08:04:07 AM 32.3286 -82.4017 343° North 403 464 31,000 500 Level Atlanta Center
Tue 08:05:07 AM 32.4333 -82.4467 340° North 410 472 32,000 500 Climbing Atlanta Center
Tue 08:06:07 AM 32.5383 -82.4867 342° North 405 466 32,000  Level Atlanta Center
Tue 08:07:07 AM 32.6453 -82.5342 339° North 405 466 32,000 50 Level Atlanta Center
Tue 08:08:07 AM 32.7522 -82.5742 343° North 405 466 32,100 550 Climbing Atlanta Center
Tue 08:09:07 AM 32.8572 -82.6144 342° North 405 466 33,100 950 Climbing Atlanta Center
Tue 08:10:07 AM 32.9578 -82.6550 341° North 393 452 34,000 450 Climbing Atlanta Center
Tue 08:11:07 AM 33.0606 -82.7003 340° North 388 447 34,000  Level Atlanta Center
Tue 08:12:07 AM 33.1653 -82.7433 341° North 393 452 34,000  Level Atlanta Center
Tue 08:13:07 AM 33.2722 -82.7867 341° North 398 458 34,000  Level Atlanta Center
Tue 08:14:07 AM 33.3958 -82.8344 342° North 405 466 34,000  Level Atlanta Center
Tue 08:15:07 AM 33.5008 -82.8778 341° North 410 472 34,000  Level Atlanta Center
Tue 08:16:07 AM 33.6097 -82.9214 342° North 410 472 34,000  Level Atlanta Center
Tue 08:17:07 AM 33.7206 -82.9647 342° North 410 472 34,000  Level Atlanta Center
Tue 08:18:07 AM 33.8275 -83.0111 340° North 410 472 34,000  Level Atlanta Center
Tue 08:19:07 AM 33.9344 -83.0547 341° North 410 472 34,000  Level Atlanta Center
Tue 08:20:07 AM 34.0411 -83.1011 340° North 410 472 34,000  Level Atlanta Center
Tue 08:21:07 AM 34.1500 -83.1453 341° North 410 472 34,000  Level Atlanta Center
Tue 08:22:07 AM 34.2567 -83.1892 341° North 410 472 34,000  Level Atlanta Center
Tue 08:23:07 AM 34.3636 -83.2361 340° North 410 472 34,000  Level Atlanta Center
Tue 08:24:07 AM 34.4619 -83.2756 342° North 415 478 34,000  Level Atlanta Center
Tue 08:25:07 AM 34.5706 -83.3197 341° North 410 472 34,000  Level Atlanta Center
Tue 08:26:07 AM 34.6772 -83.3694 339° North 405 466 34,000 -350 Level Atlanta Center
Tue 08:27:07 AM 34.7839 -83.4167 340° North 405 466 33,300 -750 Descending Atlanta Center
Tue 08:28:07 AM 34.8906 -83.4614 341° North 405 466 32,500 -650 Descending Atlanta Center
Tue 08:29:07 AM 34.9953 -83.5064 341° North 405 466 32,000 -250 Descending Atlanta Center
Tue 08:30:07 AM 35.0978 -83.5539 339° North 405 466 32,000  Level Atlanta Center
Tue 08:31:07 AM 35.2083 -83.5964 343° North 405 466 32,000  Level Atlanta Center
Tue 08:32:07 AM 35.3169 -83.6417 341° North 410 472 32,000  Level Atlanta Center
Tue 08:33:07 AM 35.4256 -83.6897 340° North 410 472 32,000  Level Atlanta Center
Tue 08:34:07 AM 35.5322 -83.7403 339° North 410 472 32,000  Level Atlanta Center
Tue 08:35:07 AM 35.6428 -83.7858 341° North 410 472 32,000  Level Atlanta Center
Tue 08:36:07 AM 35.7514 -83.8339 340° North 410 472 32,000  Level Atlanta Center
Tue 08:37:07 AM 35.8622 -83.8800 341° North 410 472 32,000  Level Atlanta Center
Tue 08:38:07 AM 35.9686 -83.9233 342° North 410 472 32,000  Level Atlanta Center
Tue 08:39:07 AM 36.0728 -83.9667 341° North 410 472 32,000  Level Atlanta Center
Tue 08:40:07 AM 36.1750 -84.0106 341° North 397 457 32,000  Level Atlanta Center
Tue 08:41:40 AM 36.3372 -84.0700 344° North 383 441 32,000  Level Indianapolis Center
Tue 08:42:41 AM 36.4467 -84.0744 358° North 391 450 32,000  Level Indianapolis Center
Tue 08:43:43 AM 36.5519 -84.0775 359° North 390 449 32,000  Level Indianapolis Center
Tue 08:44:45 AM 36.6781 -84.0825 358° North 387 445 32,000  Level Indianapolis Center
Tue 08:45:46 AM 36.7881 -84.0869 358° North 392 451 32,000  Level Indianapolis Center
Tue 08:46:48 AM 36.8961 -84.0908 358° North 389 448 32,000 -145 Level Indianapolis Center
Tue 08:47:50 AM 37.0056 -84.0947 358° North 390 449 31,700 -829 Descending Indianapolis Center
Tue 08:48:51 AM 37.1164 -84.0989 358° North 395 455 30,300 -1,610 Descending Indianapolis Center
Tue 08:49:53 AM 37.2244 -84.1033 358° North 388 447 28,400 -1,887 Descending Indianapolis Center
Tue 08:50:55 AM 37.3333 -84.1083 358° North 390 449 26,400 -1,756 Descending Indianapolis Center
Tue 08:51:56 AM 37.4372 -84.1114 359° North 375 432 24,800 -1,610 Descending Indianapolis Center
Tue 08:52:58 AM 37.5561 -84.1161 358° North 368 423 23,100 -919 Descending Indianapolis Center
Tue 08:54:00 AM 37.6514 -84.0994 North 349 402 22,900 -774 Descending Indianapolis Center
Tue 08:55:02 AM 37.7453 -84.0786 10° North 342 394 21,500 -1,415 Descending Indianapolis Center
Tue 08:56:03 AM 37.8383 -84.0619 North 339 390 20,000 -1,415 Descending Indianapolis Center
Tue 08:57:05 AM 37.9314 -84.0472 North 336 387 18,600 -1,355 Descending Indianapolis Center
Tue 08:58:07 AM 38.0197 -84.0342 North 322 371 17,200 -1,463 Descending Indianapolis Center
Tue 08:59:08 AM 38.1011 -84.0547 349° North 300 345 15,600 -1,756 Descending Indianapolis Center
Tue 09:00:10 AM 38.1917 -84.0794 348° North 286 329 13,600 -1,742 Descending Indianapolis Center
Tue 09:01:12 AM 38.2653 -84.1025 346° North 276 318 12,000 -774 Descending Indianapolis Center
Tue 09:02:14 AM 38.3378 -84.1225 348° North 268 308 12,000  Level Indianapolis Center
Tue 09:03:16 AM 38.4067 -84.1456 345° North 258 297 12,000  Level Indianapolis Center
Tue 09:04:18 AM 38.4653 -84.1658 345° North 221 254 12,000  Level Indianapolis Center
Tue 09:05:19 AM 38.5228 -84.1867 344° North 215 247 12,000 -732 Level Indianapolis Center
Tue 09:06:21 AM 38.5914 -84.1942 355° North 212 244 10,500 -1,500 Descending Indianapolis Center
Tue 09:07:23 AM 38.6494 -84.2031 353° North 215 247 8,900 -1,742 Descending Indianapolis Center
Tue 09:08:25 AM 38.7117 -84.2103 355° North 220 253 6,900 -1,887 Descending Indianapolis Center
Tue 09:09:27 AM 38.7706 -84.1822 20° North 227 261 5,000 -968 Descending Indianapolis Center
Tue 09:10:29 AM 38.8172 -84.1344 39° Northeast 220 253 4,900 -49 Descending Indianapolis Center
Tue 09:11:30 AM 38.8650 -84.0908 35° Northeast 211 243 4,900  Level Indianapolis Center
Tue 09:12:32 AM 38.9136 -84.0500 33° Northeast 209 241 4,900  Level Indianapolis Center
Tue 09:13:34 AM 38.9711 -84.0144 26° Northeast 202 232 4,900  Level Indianapolis Center
Tue 09:14:36 AM 39.0256 -84.0117 North 194 223 4,900  Level Indianapolis Center
Tue 09:15:38 AM 39.0819 -84.0067 North 199 229 4,900  Level Indianapolis Center
Tue 09:16:40 AM 39.1228 -84.0494 321° Northwest 195 224 4,900  Level Indianapolis Center
Tue 09:17:42 AM 39.1619 -84.0978 316° Northwest 192 221 4,900  Level Indianapolis Center
Tue 09:18:44 AM 39.2011 -84.1444 317° Northwest 191 220 4,900  Level Indianapolis Center
Tue 09:19:46 AM 39.2417 -84.1933 317° Northwest 195 224 4,900  Level Indianapolis Center
Tue 09:20:48 AM 39.2483 -84.2444 280° West 202 232 4,900  Level Indianapolis Center
Tue 09:21:50 AM 39.1864 -84.2417 178° South 192 221 4,900  Level Indianapolis Center
Tue 09:22:52 AM 39.1347 -84.2333 173° South 188 216 4,900  Level Indianapolis Center
Tue 09:23:54 AM 39.0817 -84.2247 173° South 190 219 4,900  Level Indianapolis Center
Tue 09:24:56 AM 39.0278 -84.2183 175° South 192 221 4,900  Level Indianapolis Center
Tue 09:25:58 AM 38.9797 -84.1908 156° South 208 239 4,900  Level Indianapolis Center
Tue 09:27:00 AM 38.9844 -84.1222 85° East 200 230 4,900 -290 Level Indianapolis Center
Tue 09:28:02 AM 39.0136 -84.0733 52° Northeast 220 253 4,300 -484 Descending Indianapolis Center
Tue 09:29:04 AM 39.0625 -84.1019 336° Northwest 200 230 3,900 -194 Descending Indianapolis Center
Tue 09:30:06 AM 39.1217 -84.1400 333° Northwest 199 229 3,900 -48 Level Indianapolis Center
Tue 09:31:08 AM 39.1756 -84.1717 336° Northwest 204 235 3,800 -435 Descending Indianapolis Center
Tue 09:32:10 AM 39.2289 -84.2092 331° Northwest 214 246 3,000 -435 Descending Indianapolis Center
Tue 09:33:12 AM 39.2636 -84.2708 306° West 213 245 2,900 -48 Descending Indianapolis Center
Tue 09:34:14 AM 39.2675 -84.3308 275° West 205 236 2,900  Level Indianapolis Center
Tue 09:35:16 AM 39.2272 -84.3531 203° Southwest 171 197 2,900 -48 Level Indianapolis Center
Tue 09:36:18 AM 39.1889 -84.3703 199° South 168 193 2,800 -97 Descending Indianapolis Center

Login

Don't have an account? Register now (free) for customized features, flight alerts, and more!